createdAt,value
2022-08-21T00:01:52.912Z,9.30
2022-08-21T00:04:22.741Z,10.40
2022-08-21T00:06:57.462Z,9.97
2022-08-21T00:09:25.446Z,10.87
2022-08-21T00:11:53.678Z,15.97
2022-08-21T00:14:21.595Z,9.53
2022-08-21T00:16:49.584Z,14.43
2022-08-21T00:19:17.555Z,8.40
2022-08-21T00:21:47.398Z,13.67
2022-08-21T00:24:15.705Z,13.10
2022-08-21T00:26:44.411Z,12.53
2022-08-21T00:29:12.483Z,10.07
2022-08-21T00:31:40.433Z,10.63
2022-08-21T00:34:09.947Z,11.60
2022-08-21T00:36:38.174Z,9.00
2022-08-21T00:39:08.881Z,11.60
2022-08-21T00:41:39.214Z,11.73
2022-08-21T00:44:09.049Z,10.10
2022-08-21T00:46:37.250Z,15.83
2022-08-21T00:49:06.195Z,11.43
2022-08-21T00:51:40.151Z,13.83
2022-08-21T00:54:16.930Z,8.37
2022-08-21T00:56:48.347Z,15.37
2022-08-21T00:59:18.216Z,14.30
2022-08-21T01:01:46.305Z,13.07
2022-08-21T01:04:14.728Z,13.60
2022-08-21T01:06:42.740Z,12.37
2022-08-21T01:09:12.425Z,13.37
2022-08-21T01:11:40.895Z,12.80
2022-08-21T01:14:08.802Z,10.93
2022-08-21T01:16:36.783Z,15.47
2022-08-21T01:19:04.759Z,11.07
2022-08-21T01:21:34.367Z,14.80
2022-08-21T01:24:02.463Z,13.40
2022-08-21T01:26:36.580Z,11.40
2022-08-21T01:29:11.007Z,12.77
2022-08-21T01:31:39.003Z,11.20
2022-08-21T01:34:07.755Z,11.77
2022-08-21T01:36:37.243Z,12.47
2022-08-21T01:39:06.973Z,16.00
2022-08-21T01:41:35.050Z,9.47
2022-08-21T01:44:03.055Z,13.90
2022-08-21T01:46:31.176Z,13.20
2022-08-21T01:48:59.194Z,11.77
2022-08-21T01:51:27.706Z,9.60
2022-08-21T01:53:56.954Z,14.03
2022-08-21T01:56:26.918Z,10.17
2022-08-21T01:58:56.887Z,11.50
2022-08-21T02:01:25.446Z,9.37
2022-08-21T02:03:53.473Z,13.40
2022-08-21T02:06:21.426Z,11.50
2022-08-21T02:08:51.453Z,14.63
2022-08-21T02:11:20.851Z,12.73
2022-08-21T02:13:48.877Z,13.80
2022-08-21T02:16:17.323Z,15.10
2022-08-21T02:18:48.098Z,12.37
2022-08-21T02:21:16.203Z,15.30
2022-08-21T02:23:44.431Z,14.63
2022-08-21T02:26:13.034Z,14.47
2022-08-21T02:28:43.205Z,12.97
2022-08-21T02:31:11.374Z,14.17
2022-08-21T02:33:40.325Z,16.60
2022-08-21T02:36:10.789Z,16.90
2022-08-21T02:38:40.491Z,15.50
2022-08-21T02:41:11.483Z,17.10
2022-08-21T02:43:39.382Z,15.23
2022-08-21T02:46:10.588Z,18.77
2022-08-21T02:48:39.324Z,21.60
2022-08-21T02:51:09.646Z,17.10
2022-08-21T02:53:38.346Z,16.10
2022-08-21T02:56:09.374Z,21.17
2022-08-21T02:58:41.201Z,17.13
2022-08-21T03:01:11.443Z,17.37
2022-08-21T03:03:40.172Z,16.70
2022-08-21T03:06:09.841Z,14.57
2022-08-21T03:08:38.510Z,16.77
2022-08-21T03:11:07.743Z,16.00
2022-08-21T03:13:38.512Z,17.20
2022-08-21T03:16:09.822Z,15.37
2022-08-21T03:18:40.158Z,15.97
2022-08-21T03:21:08.814Z,18.67
2022-08-21T03:23:36.835Z,16.73
2022-08-21T03:26:05.983Z,14.50
2022-08-21T03:28:36.125Z,12.50
2022-08-21T03:31:04.094Z,12.37
2022-08-21T03:33:32.041Z,14.27
2022-08-21T03:36:05.362Z,15.77
2022-08-21T03:38:35.436Z,15.57
2022-08-21T03:41:05.046Z,14.07
2022-08-21T03:43:33.590Z,14.83
2022-08-21T03:46:04.888Z,11.97
2022-08-21T03:48:33.013Z,14.27
2022-08-21T03:51:03.155Z,13.60
2022-08-21T03:53:31.700Z,10.83
2022-08-21T03:55:59.802Z,12.90
2022-08-21T03:58:29.863Z,11.67
2022-08-21T04:01:00.212Z,17.33
2022-08-21T04:03:28.918Z,13.33
2022-08-21T04:05:56.924Z,12.63
2022-08-21T04:08:26.472Z,10.97
2022-08-21T04:10:57.339Z,17.10
2022-08-21T04:13:25.604Z,13.87
2022-08-21T04:15:53.669Z,11.23
2022-08-21T04:18:21.588Z,14.23
2022-08-21T04:20:53.026Z,16.47
2022-08-21T04:23:24.698Z,12.23
2022-08-21T04:25:56.479Z,13.23
2022-08-21T04:28:28.981Z,16.13
2022-08-21T04:30:58.501Z,12.00
2022-08-21T04:33:27.052Z,13.87
2022-08-21T04:35:55.130Z,12.50
2022-08-21T04:38:23.465Z,14.13
2022-08-21T04:40:53.986Z,13.67
2022-08-21T04:43:24.228Z,11.60
2022-08-21T04:45:53.920Z,11.07
2022-08-21T04:48:26.028Z,13.93
2022-08-21T04:50:58.380Z,13.40
2022-08-21T04:53:32.295Z,15.53
2022-08-21T04:56:06.425Z,16.67
2022-08-21T04:58:35.687Z,13.77
2022-08-21T05:01:05.864Z,12.07
2022-08-21T05:03:36.650Z,11.77
2022-08-21T05:06:06.716Z,11.83
2022-08-21T05:08:36.053Z,10.23
2022-08-21T05:11:06.682Z,10.73
2022-08-21T05:13:34.607Z,10.67
2022-08-21T05:16:02.636Z,12.60
2022-08-21T05:18:30.581Z,13.03
2022-08-21T05:20:58.564Z,9.77
2022-08-21T05:23:26.857Z,12.03
2022-08-21T05:25:56.076Z,11.70
2022-08-21T05:28:25.992Z,12.37
2022-08-21T05:30:54.975Z,13.37
2022-08-21T05:33:23.312Z,11.80
2022-08-21T05:35:52.104Z,13.00
2022-08-21T05:38:20.115Z,14.27
2022-08-21T05:40:48.441Z,13.47
2022-08-21T05:43:16.487Z,12.87
2022-08-21T05:45:45.995Z,12.73
2022-08-21T05:48:16.657Z,12.93
2022-08-21T05:50:45.842Z,12.63
2022-08-21T05:53:14.942Z,10.27
2022-08-21T05:55:46.109Z,13.07
2022-08-21T05:58:16.049Z,9.73
2022-08-21T06:00:46.579Z,12.10
2022-08-21T06:03:16.532Z,13.87
2022-08-21T06:05:44.537Z,13.80
2022-08-21T06:08:12.517Z,9.63
2022-08-21T06:10:40.521Z,16.50
2022-08-21T06:13:09.153Z,15.10
2022-08-21T06:15:37.301Z,11.33
2022-08-21T06:18:06.943Z,12.27
2022-08-21T06:20:34.969Z,9.33
2022-08-21T06:23:03.309Z,12.87
2022-08-21T06:25:32.391Z,11.57
2022-08-21T06:28:05.249Z,11.77
2022-08-21T06:30:33.470Z,17.20
2022-08-21T06:33:01.599Z,8.87
2022-08-21T06:35:31.740Z,8.50
2022-08-21T06:38:00.154Z,12.67
2022-08-21T06:40:29.813Z,10.70
2022-08-21T06:42:58.560Z,11.47
2022-08-21T06:45:28.308Z,11.87
2022-08-21T06:48:00.505Z,8.27
2022-08-21T06:50:30.299Z,13.17
2022-08-21T06:53:04.526Z,10.30
2022-08-21T06:55:32.727Z,14.50
2022-08-21T06:58:00.987Z,12.57
2022-08-21T07:00:29.360Z,11.13
2022-08-21T07:02:57.833Z,6.97
2022-08-21T07:05:28.190Z,12.03
2022-08-21T07:07:57.941Z,8.47
2022-08-21T07:10:26.353Z,7.43
2022-08-21T07:13:00.047Z,10.87
2022-08-21T07:15:30.779Z,10.53
2022-08-21T07:17:59.319Z,8.30
2022-08-21T07:20:27.648Z,9.17
2022-08-21T07:22:57.659Z,9.50
2022-08-21T07:25:25.820Z,8.40
2022-08-21T07:27:53.850Z,11.60
2022-08-21T07:30:21.823Z,7.73
2022-08-21T07:32:50.814Z,6.80
2022-08-21T07:35:19.882Z,5.83
2022-08-21T07:37:48.068Z,7.17
2022-08-21T07:40:19.101Z,9.50
2022-08-21T07:42:51.021Z,7.33
2022-08-21T07:45:20.594Z,7.60
2022-08-21T07:47:49.413Z,3.80
2022-08-21T07:50:19.736Z,9.70
2022-08-21T07:52:48.221Z,7.30
2022-08-21T07:55:21.161Z,6.30
2022-08-21T07:57:49.852Z,10.60
2022-08-21T08:00:20.509Z,6.63
2022-08-21T08:02:51.386Z,6.43
2022-08-21T08:05:22.073Z,8.30
2022-08-21T08:07:50.008Z,10.73
2022-08-21T08:10:20.428Z,7.50
2022-08-21T08:12:48.548Z,9.57
2022-08-21T08:15:20.933Z,7.13
2022-08-21T08:17:49.427Z,5.33
2022-08-21T08:20:19.189Z,8.33
2022-08-21T08:22:48.636Z,5.27
2022-08-21T08:25:21.528Z,9.53
2022-08-21T08:27:49.602Z,8.20
2022-08-21T08:30:20.414Z,7.47
2022-08-21T08:32:49.381Z,8.87
2022-08-21T08:35:18.847Z,6.40
2022-08-21T08:37:52.609Z,7.57
2022-08-21T08:40:30.080Z,8.97
2022-08-21T08:42:58.427Z,5.97
2022-08-21T08:45:27.728Z,6.90
2022-08-21T08:48:02.058Z,4.77
2022-08-21T08:50:47.055Z,10.10
2022-08-21T08:53:19.210Z,6.30
2022-08-21T08:55:49.997Z,9.43
2022-08-21T08:58:21.979Z,16.97
2022-08-21T09:00:52.626Z,12.80
2022-08-21T09:03:22.720Z,6.43
2022-08-21T09:05:57.122Z,9.07
2022-08-21T09:08:50.167Z,13.50
2022-08-21T09:11:29.476Z,11.57
2022-08-21T09:14:07.771Z,7.83
2022-08-21T09:16:44.410Z,12.87
2022-08-21T09:19:25.146Z,8.43
2022-08-21T09:22:05.378Z,15.20
2022-08-21T09:24:38.753Z,12.77
2022-08-21T09:27:10.947Z,6.20
2022-08-21T09:29:41.505Z,8.87
2022-08-21T09:32:18.672Z,5.13
2022-08-21T09:35:01.977Z,11.13
2022-08-21T09:37:31.668Z,7.60
2022-08-21T09:40:00.947Z,7.10
2022-08-21T09:42:33.794Z,5.23
2022-08-21T09:45:12.673Z,7.03
2022-08-21T09:47:40.739Z,7.93
2022-08-21T09:50:15.515Z,7.93
2022-08-21T09:52:53.343Z,5.55
2022-08-21T09:55:46.039Z,5.38
2022-08-21T09:58:16.250Z,7.88
2022-08-21T10:00:45.457Z,6.97
2022-08-21T10:03:17.005Z,5.50
2022-08-21T10:05:54.729Z,6.25
2022-08-21T10:08:24.488Z,7.53
2022-08-21T10:10:56.666Z,11.65
2022-08-21T10:13:37.099Z,8.23
2022-08-21T10:16:17.560Z,5.18
2022-08-21T10:18:56.957Z,6.97
2022-08-21T10:21:29.548Z,7.20
2022-08-21T10:24:05.926Z,7.68
2022-08-21T10:26:48.771Z,5.85
2022-08-21T10:29:33.835Z,4.55
2022-08-21T10:32:11.701Z,7.82
2022-08-21T10:35:01.335Z,5.82
2022-08-21T10:37:44.428Z,5.60
2022-08-21T10:40:22.847Z,5.20
2022-08-21T10:43:01.881Z,3.92
2022-08-21T10:45:45.427Z,8.13
2022-08-21T10:48:33.627Z,6.40
2022-08-21T10:51:08.922Z,7.15
2022-08-21T10:53:52.625Z,7.68
2022-08-21T10:56:25.244Z,6.85
2022-08-21T10:59:06.275Z,5.85
2022-08-21T11:01:45.027Z,7.40
2022-08-21T11:04:15.376Z,6.60
2022-08-21T11:06:50.764Z,4.53
2022-08-21T11:09:21.910Z,4.45
2022-08-21T11:11:59.341Z,5.60
2022-08-21T11:14:50.373Z,7.10
2022-08-21T11:17:25.111Z,4.93
2022-08-21T11:20:01.595Z,3.58
2022-08-21T11:22:38.901Z,5.90
2022-08-21T11:25:12.946Z,7.43
2022-08-21T11:27:45.628Z,5.78
2022-08-21T11:30:14.693Z,5.95
2022-08-21T11:33:00.200Z,5.68
2022-08-21T11:35:37.850Z,5.90
2022-08-21T11:38:20.883Z,5.63
2022-08-21T11:41:01.417Z,6.95
2022-08-21T11:43:39.505Z,4.55
2022-08-21T11:46:22.856Z,5.07
2022-08-21T11:49:13.682Z,5.47
2022-08-21T11:51:47.496Z,4.95
2022-08-21T11:54:23.316Z,5.83
2022-08-21T11:56:59.344Z,3.07
2022-08-21T11:59:40.128Z,7.03
2022-08-21T12:02:14.051Z,5.10
2022-08-21T12:04:48.502Z,4.47
2022-08-21T12:07:19.657Z,5.77
2022-08-21T12:09:56.085Z,5.33
2022-08-21T12:12:28.107Z,6.87
2022-08-21T12:15:14.506Z,7.97
2022-08-21T12:17:53.582Z,7.47
2022-08-21T12:20:50.106Z,6.63
2022-08-21T12:23:30.743Z,7.53
2022-08-21T12:26:15.891Z,5.50
2022-08-21T12:28:43.914Z,5.17
2022-08-21T12:31:25.060Z,7.43
2022-08-21T12:33:57.619Z,4.50
2022-08-21T12:36:41.758Z,7.17
2022-08-21T12:39:15.966Z,3.73
2022-08-21T12:41:52.230Z,8.43
2022-08-21T12:44:25.161Z,6.77
2022-08-21T12:46:58.300Z,3.97
2022-08-21T12:49:31.641Z,6.97
2022-08-21T12:52:11.165Z,5.03
2022-08-21T12:54:42.919Z,6.17
2022-08-21T12:57:20.337Z,4.30
2022-08-21T12:59:53.544Z,5.37
2022-08-21T13:02:25.223Z,5.10
2022-08-21T13:04:56.195Z,2.57
2022-08-21T13:07:30.418Z,4.53
2022-08-21T13:10:01.582Z,4.60
2022-08-21T13:12:32.298Z,7.47
2022-08-21T13:15:08.843Z,5.27
2022-08-21T13:17:40.837Z,6.57
2022-08-21T13:20:12.311Z,5.27
2022-08-21T13:22:44.936Z,7.27
2022-08-21T13:25:15.704Z,5.60
2022-08-21T13:27:44.699Z,4.63
2022-08-21T13:30:17.078Z,5.20
2022-08-21T13:32:48.108Z,9.53
2022-08-21T13:35:20.215Z,7.03
2022-08-21T13:37:52.672Z,7.13
2022-08-21T13:40:48.078Z,6.07
2022-08-21T13:43:21.255Z,7.43
2022-08-21T13:45:52.630Z,4.90
2022-08-21T13:48:21.441Z,5.60
2022-08-21T13:50:49.742Z,5.30
2022-08-21T13:53:31.261Z,6.20
2022-08-21T13:56:00.923Z,7.53
2022-08-21T13:58:31.111Z,6.07
2022-08-21T14:01:01.390Z,5.90
2022-08-21T14:03:36.376Z,3.80
2022-08-21T14:06:12.792Z,4.93
2022-08-21T14:08:43.976Z,6.03
2022-08-21T14:11:14.534Z,6.47
2022-08-21T14:13:45.396Z,7.07
2022-08-21T14:16:19.749Z,6.57
2022-08-21T14:18:52.159Z,6.90
2022-08-21T14:21:33.208Z,4.63
2022-08-21T14:24:05.539Z,5.37
2022-08-21T14:26:37.027Z,5.50
2022-08-21T14:29:10.773Z,5.03
2022-08-21T14:31:40.323Z,8.30
2022-08-21T14:34:19.688Z,4.37
2022-08-21T14:36:49.233Z,6.83
2022-08-21T14:39:18.687Z,4.63
2022-08-21T14:41:49.550Z,7.27
2022-08-21T14:44:19.116Z,9.03
2022-08-21T14:46:55.864Z,4.37
2022-08-21T14:49:28.658Z,4.27
2022-08-21T14:51:59.101Z,5.93
2022-08-21T14:54:31.607Z,7.10
2022-08-21T14:57:02.956Z,2.97
2022-08-21T14:59:33.581Z,4.80
2022-08-21T15:02:01.582Z,4.10
2022-08-21T15:04:29.716Z,3.20
2022-08-21T15:06:57.896Z,5.27
2022-08-21T15:09:25.904Z,4.73
2022-08-21T15:11:57.515Z,4.63
2022-08-21T15:14:29.334Z,5.37
2022-08-21T15:16:57.721Z,5.63
2022-08-21T15:19:26.243Z,5.80
2022-08-21T15:21:55.852Z,4.17
2022-08-21T15:24:24.393Z,5.67
2022-08-21T15:26:53.212Z,3.57
2022-08-21T15:29:23.113Z,5.63
2022-08-21T15:31:55.844Z,6.17
2022-08-21T15:34:27.066Z,5.80
2022-08-21T15:36:57.226Z,5.33
2022-08-21T15:39:31.101Z,4.87
2022-08-21T15:41:59.967Z,2.47
2022-08-21T15:44:32.242Z,3.00
2022-08-21T15:47:01.447Z,5.20
2022-08-21T15:49:29.489Z,3.43
2022-08-21T15:51:57.540Z,4.57
2022-08-21T15:54:25.504Z,3.83
2022-08-21T15:56:53.648Z,4.53
2022-08-21T15:59:23.732Z,5.17
2022-08-21T16:01:54.099Z,4.03
2022-08-21T16:04:26.407Z,6.77
2022-08-21T16:06:59.259Z,5.10
2022-08-21T16:09:33.998Z,5.23
2022-08-21T16:12:02.724Z,6.17
2022-08-21T16:14:32.385Z,4.03
2022-08-21T16:17:01.824Z,6.00
2022-08-21T16:19:30.744Z,6.97
2022-08-21T16:21:59.068Z,4.37
2022-08-21T16:24:27.088Z,4.57
2022-08-21T16:26:57.927Z,3.53
2022-08-21T16:29:29.114Z,19.17
2022-08-21T16:31:57.760Z,4.60
2022-08-21T16:34:28.525Z,4.27
2022-08-21T16:36:56.732Z,3.63
2022-08-21T16:39:24.862Z,4.87
2022-08-21T16:41:53.259Z,4.33
2022-08-21T16:44:22.947Z,3.60
2022-08-21T16:46:51.336Z,4.30
2022-08-21T16:49:19.461Z,2.93
2022-08-21T16:51:48.970Z,4.73
2022-08-21T16:54:16.902Z,3.77
2022-08-21T16:56:47.746Z,5.27
2022-08-21T16:59:17.536Z,5.23
2022-08-21T17:01:46.484Z,4.80
2022-08-21T17:04:14.609Z,2.80
2022-08-21T17:06:43.935Z,2.93
2022-08-21T17:09:13.503Z,5.30
2022-08-21T17:11:44.544Z,3.43
2022-08-21T17:14:15.699Z,4.43
2022-08-21T17:16:47.368Z,3.87
2022-08-21T17:19:15.984Z,7.57
2022-08-21T17:21:44.092Z,6.60
2022-08-21T17:24:15.426Z,4.83
2022-08-21T17:26:43.539Z,5.03
2022-08-21T17:29:14.425Z,6.10
2022-08-21T17:31:43.847Z,4.17
2022-08-21T17:34:12.641Z,3.80
2022-08-21T17:36:40.670Z,3.80
2022-08-21T17:39:09.889Z,5.23
2022-08-21T17:41:40.768Z,4.10
2022-08-21T17:44:13.283Z,3.67
2022-08-21T17:46:44.556Z,6.30
2022-08-21T17:49:13.892Z,4.17
2022-08-21T17:51:42.224Z,5.23
2022-08-21T17:54:10.149Z,3.47
2022-08-21T17:56:43.879Z,4.40
2022-08-21T17:59:19.579Z,3.67
2022-08-21T18:01:48.161Z,5.60
2022-08-21T18:04:17.215Z,3.30
2022-08-21T18:06:45.896Z,2.60
2022-08-21T18:09:14.326Z,3.30
2022-08-21T18:11:44.918Z,5.57
2022-08-21T18:14:13.346Z,4.23
2022-08-21T18:16:41.299Z,5.30
2022-08-21T18:19:11.847Z,3.70
2022-08-21T18:21:40.001Z,4.57
2022-08-21T18:24:08.223Z,3.23
2022-08-21T18:26:38.662Z,2.87
2022-08-21T18:29:10.903Z,4.23
2022-08-21T18:31:40.388Z,5.80
2022-08-21T18:34:19.551Z,3.53
2022-08-21T18:36:48.479Z,2.60
2022-08-21T18:39:36.089Z,4.73
2022-08-21T18:42:10.070Z,5.03
2022-08-21T18:44:40.232Z,5.57
2022-08-21T18:47:14.357Z,3.87
2022-08-21T18:49:42.536Z,3.90
2022-08-21T18:52:20.204Z,6.90
2022-08-21T18:54:49.818Z,5.13
2022-08-21T18:57:19.239Z,6.63
2022-08-21T18:59:50.360Z,7.77
2022-08-21T19:02:18.431Z,6.43
2022-08-21T19:04:47.007Z,3.77
2022-08-21T19:07:19.764Z,10.03
2022-08-21T19:12:37.014Z,4.83
2022-08-21T19:15:10.560Z,4.77
2022-08-21T19:17:39.079Z,3.83
2022-08-21T19:20:19.442Z,4.47
2022-08-21T19:22:55.325Z,6.67
2022-08-21T19:25:33.748Z,4.07
2022-08-21T19:28:04.029Z,3.87
2022-08-21T19:30:45.866Z,4.77
2022-08-21T19:33:30.257Z,6.23
2022-08-21T19:35:58.735Z,9.27
2022-08-21T19:38:27.488Z,6.00
2022-08-21T19:41:55.232Z,7.93
2022-08-21T19:44:26.703Z,4.13
2022-08-21T19:46:58.410Z,6.00
2022-08-21T19:49:33.437Z,6.30
2022-08-21T19:52:02.534Z,6.57
2022-08-21T19:54:41.354Z,8.90
2022-08-21T19:57:12.168Z,9.00
2022-08-21T19:59:42.003Z,4.93
2022-08-21T20:02:13.004Z,5.03
2022-08-21T20:04:53.554Z,5.03
2022-08-21T20:07:26.675Z,9.00
2022-08-21T20:09:55.534Z,9.77
2022-08-21T20:12:24.776Z,7.80
2022-08-21T20:14:53.812Z,6.33
2022-08-21T20:17:25.110Z,4.97
2022-08-21T20:19:55.039Z,6.67
2022-08-21T20:22:23.919Z,5.53
2022-08-21T20:24:52.431Z,6.23
2022-08-21T20:27:24.574Z,4.00
2022-08-21T20:29:52.725Z,7.87
2022-08-21T20:35:12.497Z,6.27
2022-08-21T20:37:42.001Z,5.87
2022-08-21T20:40:12.538Z,6.40
2022-08-21T20:42:44.765Z,6.70
2022-08-21T20:45:18.661Z,3.27
2022-08-21T20:47:52.562Z,6.67
2022-08-21T20:50:26.663Z,5.33
2022-08-21T20:53:01.164Z,8.07
2022-08-21T20:55:30.381Z,6.77
2022-08-21T20:58:04.763Z,2.87
2022-08-21T21:00:36.003Z,4.37
2022-08-21T21:03:10.645Z,3.53
2022-08-21T21:05:47.028Z,8.10
2022-08-21T21:08:20.738Z,5.60
2022-08-21T21:10:53.203Z,5.80
2022-08-21T21:13:25.782Z,7.87
2022-08-21T21:15:57.614Z,9.07
2022-08-21T21:18:32.453Z,4.50
2022-08-21T21:21:08.039Z,4.80
2022-08-21T21:23:42.267Z,7.27
2022-08-21T21:26:15.456Z,8.10
2022-08-21T21:28:49.481Z,6.63
2022-08-21T21:31:19.243Z,6.37
2022-08-21T21:33:49.500Z,5.90
2022-08-21T21:36:27.057Z,7.47
2022-08-21T21:39:04.851Z,5.20
2022-08-21T21:41:36.549Z,6.23
2022-08-21T21:44:28.847Z,5.87
2022-08-21T21:47:09.668Z,5.97
2022-08-21T21:49:51.328Z,7.20
2022-08-21T21:52:32.298Z,8.30
2022-08-21T21:55:11.222Z,6.33
2022-08-21T21:57:59.259Z,6.13
2022-08-21T22:00:28.865Z,9.63
2022-08-21T22:03:08.563Z,5.70
2022-08-21T22:05:57.525Z,10.80
2022-08-21T22:08:36.877Z,5.33
2022-08-21T22:11:24.484Z,10.47
2022-08-21T22:14:08.174Z,7.27
2022-08-21T22:16:38.049Z,8.67
2022-08-21T22:19:14.761Z,7.27
2022-08-21T22:21:48.502Z,5.03
2022-08-21T22:24:19.194Z,7.10
2022-08-21T22:26:53.245Z,7.80
2022-08-21T22:29:24.059Z,6.43
2022-08-21T22:32:04.893Z,7.20
2022-08-21T22:34:33.608Z,8.43
2022-08-21T22:37:06.835Z,7.73
2022-08-21T22:42:28.083Z,7.10
2022-08-21T22:44:58.852Z,9.43
2022-08-21T22:47:34.445Z,8.73
2022-08-21T22:50:05.481Z,5.53
2022-08-21T22:52:37.378Z,6.73
2022-08-21T22:55:24.782Z,8.57
2022-08-21T22:58:07.526Z,8.73
2022-08-21T23:00:45.020Z,7.20
2022-08-21T23:03:23.789Z,6.73
2022-08-21T23:05:53.132Z,8.13
2022-08-21T23:08:32.683Z,7.10
2022-08-21T23:11:03.490Z,4.93
2022-08-21T23:13:42.990Z,7.77
2022-08-21T23:16:23.674Z,5.20
2022-08-21T23:19:00.286Z,5.10
2022-08-21T23:21:34.101Z,8.43
2022-08-21T23:24:35.088Z,8.30
2022-08-21T23:27:12.152Z,6.30
2022-08-21T23:29:47.242Z,9.63
2022-08-21T23:32:35.453Z,6.70
2022-08-21T23:35:11.344Z,6.10
2022-08-21T23:37:51.572Z,6.53
2022-08-21T23:40:51.150Z,7.67
2022-08-21T23:43:39.413Z,4.83
2022-08-21T23:46:33.990Z,6.93
2022-08-21T23:49:17.554Z,12.37
2022-08-21T23:51:56.174Z,6.40
2022-08-21T23:54:30.832Z,7.50
2022-08-21T23:57:15.142Z,5.97
